CYPH

Inukjuak Airport

Inukjuak, Quebec, Canada
METAR CYPH 152050Z AUTO 26013KT 2SM BR OVC005 03/02 A2957 RMK VIS VRB 1-3 SLP015
Observed Flight Rules
Jul-15 @ 20:50 UTC (17 minutes ago) Instrument Flight Rules
Wind Visibility Clouds Conditions
260° at 13 knots 2 miles
  • Overcast at 500' AGL
  • Mist
Temperatures Readings
Current 3°C / 37°F
Dewpoint 2°C / 36°F
Humidity 93%
Altimeter 29.57" Hg
Pressure 1001.5 hPa
Elevation 3
METAR CYPH 152050Z AUTO 26013KT 2SM BR OVC005 03/02 A2957 RMK VIS VRB 1-3 SLP015
Observed Flight Rules
Jul-15 @ 20:50 UTC
(17 minutes ago)
IFR
Wind Visibility
260° at 13 knots 2 miles
Clouds
  • Overcast at 500' AGL
Conditions
  • Mist
Temperature Dewpoint
3°C / 37°F 2°C / 36°F
Humidity Altimeter Pressure
93% 29.57" Hg 1001.5 hPa